Time;durP1;ratioP1;P1;durP2;ratioP2;P2;SDS_P1;SDS_P2;PMS_P1;PMS_P2;Temp;Humidity;BMP_temperature;BMP_pressure;BME280_temperature;BME280_humidity;BME280_pressure;Samples;Min_cycle;Max_cycle;Signal;HPM_P1;HPM_P2
2021/04/21 00:01:51;;;;;;;14.25;11.15;;;;;;;13.47;33.95;101191.78;3595819;40;20481;-74
2021/04/21 00:04:19;;;;;;;13.50;10.48;;;;;;;13.43;33.80;101184.81;3578788;40;20053;-74
2021/04/21 00:06:47;;;;;;;15.25;10.98;;;;;;;13.40;34.12;101184.25;3590754;40;20405;-74
2021/04/21 00:09:17;;;;;;;14.88;10.50;;;;;;;13.39;33.81;101182.50;3588114;40;20044;-74
2021/04/21 00:11:44;;;;;;;13.90;10.32;;;;;;;13.36;34.07;101178.16;3578415;40;20134;-74
2021/04/21 00:14:16;;;;;;;14.68;10.85;;;;;;;13.35;34.26;101179.16;3596356;40;20044;-74
2021/04/21 00:16:48;;;;;;;15.48;10.68;;;;;;;13.32;33.94;101173.13;3586902;40;20049;-74
2021/04/21 00:19:19;;;;;;;14.07;10.40;;;;;;;13.29;34.08;101178.88;3596205;40;20040;-75
2021/04/21 00:21:49;;;;;;;13.95;10.40;;;;;;;13.28;34.13;101174.38;3593251;40;20468;-76
2021/04/21 00:24:17;;;;;;;15.60;10.52;;;;;;;13.26;34.05;101177.28;3585690;40;20052;-74
2021/04/21 00:26:47;;;;;;;15.30;10.73;;;;;;;13.25;34.07;101172.81;3589579;40;20146;-75
2021/04/21 00:29:16;;;;;;;14.52;10.68;;;;;;;13.22;34.33;101180.47;3589306;40;20052;-74
2021/04/21 00:31:46;;;;;;;13.52;10.15;;;;;;;13.20;34.19;101174.22;3588278;40;20088;-73
2021/04/21 00:34:16;;;;;;;13.40;9.38;;;;;;;13.17;34.48;101178.16;3588214;40;20054;-74
2021/04/21 00:36:47;;;;;;;15.50;10.77;;;;;;;13.14;34.44;101175.69;3587989;40;20048;-75
2021/04/21 00:39:17;;;;;;;13.50;9.57;;;;;;;13.12;34.48;101174.94;3586687;40;20056;-74
2021/04/21 00:41:55;;;;;;;14.52;10.70;;;;;;;13.11;34.68;101176.81;3592002;40;20070;-74
2021/04/21 00:44:30;;;;;;;13.50;10.20;;;;;;;13.08;34.56;101173.50;3585643;40;20055;-74
2021/04/21 00:47:04;;;;;;;13.75;10.30;;;;;;;13.06;34.74;101179.13;3585497;40;20052;-74
2021/04/21 00:49:41;;;;;;;13.35;10.40;;;;;;;13.04;34.79;101178.41;3586928;40;20384;-74
2021/04/21 00:52:17;;;;;;;14.30;10.82;;;;;;;13.02;34.74;101179.53;3592860;40;20050;-74
2021/04/21 00:54:52;;;;;;;13.68;10.52;;;;;;;12.99;34.74;101177.09;3583051;40;20056;-74
2021/04/21 00:57:26;;;;;;;15.23;11.07;;;;;;;12.96;35.17;101175.47;3585036;40;20393;-74
2021/04/21 01:00:03;;;;;;;16.50;11.40;;;;;;;12.92;35.25;101171.31;3589455;40;20048;-74
2021/04/21 01:02:38;;;;;;;13.93;11.10;;;;;;;12.89;34.99;101168.78;3579569;40;20149;-74
2021/04/21 01:05:13;;;;;;;12.88;10.20;;;;;;;12.87;34.82;101165.31;3587278;40;20076;-74
2021/04/21 01:07:47;;;;;;;14.02;9.23;;;;;;;12.84;34.77;101164.75;3588378;40;20068;-74
2021/04/21 01:10:16;;;;;;;14.15;10.23;;;;;;;12.80;34.53;101155.91;3586417;40;20408;-74
2021/04/21 01:12:50;;;;;;;13.43;9.77;;;;;;;12.77;35.05;101164.41;3592766;40;20088;-74
2021/04/21 01:15:19;;;;;;;16.20;11.50;;;;;;;12.76;34.99;101159.91;3586546;40;20053;-74
2021/04/21 01:17:52;;;;;;;14.52;10.77;;;;;;;12.74;35.07;101157.34;3588873;40;20511;-74
2021/04/21 01:20:45;;;;;;;15.30;11.40;;;;;;;12.70;35.63;101146.75;3576700;40;20052;-74
2021/04/21 01:23:54;;;;;;;15.05;10.63;;;;;;;12.65;35.53;101144.44;3584231;40;20127;-74
2021/04/21 01:26:50;;;;;;;14.38;10.27;;;;;;;12.62;35.43;101147.44;3584035;40;20068;-74
2021/04/21 01:29:40;;;;;;;13.70;9.70;;;;;;;12.58;35.17;101145.13;3586192;40;20048;-74
2021/04/21 01:32:33;;;;;;;16.02;10.85;;;;;;;12.56;35.33;101138.91;3586408;40;20040;-74
2021/04/21 01:35:23;;;;;;;14.13;10.68;;;;;;;12.49;35.10;101140.47;3583250;40;20527;-74
2021/04/21 01:38:13;;;;;;;14.07;10.20;;;;;;;12.48;35.41;101142.34;3587287;40;20077;-74
2021/04/21 01:41:04;;;;;;;12.43;9.55;;;;;;;12.46;35.21;101149.84;3586154;40;20314;-74
2021/04/21 01:43:56;;;;;;;15.18;10.82;;;;;;;12.43;35.52;101145.50;3587568;40;20452;-74
2021/04/21 01:46:53;;;;;;;13.73;10.13;;;;;;;12.41;35.41;101147.53;3587132;40;20052;-73
2021/04/21 01:49:49;;;;;;;14.82;9.98;;;;;;;12.39;35.73;101149.53;3588188;40;20044;-74
2021/04/21 01:52:47;;;;;;;15.68;11.52;;;;;;;12.34;35.99;101146.34;3586578;40;20367;-74
2021/04/21 01:55:44;;;;;;;16.20;11.23;;;;;;;12.32;35.74;101152.97;3588127;40;20423;-74
2021/04/21 01:58:42;;;;;;;13.38;10.35;;;;;;;12.27;35.69;101150.59;3586191;40;20036;-74
2021/04/21 02:01:51;;;;;;;15.00;10.60;;;;;;;12.22;36.08;101154.78;3582585;40;20061;-74
2021/04/21 02:04:52;;;;;;;13.90;9.85;;;;;;;12.20;35.94;101154.91;3587334;40;20052;-74
2021/04/21 02:07:50;;;;;;;14.65;10.18;;;;;;;12.16;36.18;101150.72;3581252;40;20085;-74
2021/04/21 02:10:48;;;;;;;14.18;9.80;;;;;;;12.15;35.86;101153.59;3583839;40;20437;-74
2021/04/21 02:13:51;;;;;;;12.52;9.35;;;;;;;12.11;35.93;101154.84;3587587;40;20591;-74
2021/04/21 02:16:47;;;;;;;15.02;10.30;;;;;;;12.07;36.05;101154.25;3585866;40;20058;-75
2021/04/21 02:19:44;;;;;;;13.20;9.50;;;;;;;12.04;36.10;101151.78;3587689;40;20037;-74
2021/04/21 02:22:36;;;;;;;14.70;9.80;;;;;;;12.00;35.85;101162.16;3584727;40;20076;-74
2021/04/21 02:25:33;;;;;;;13.10;9.05;;;;;;;11.98;36.10;101149.59;3582976;40;20325;-74
2021/04/21 02:28:27;;;;;;;14.00;10.23;;;;;;;11.95;35.73;101155.31;3594093;40;20058;-74
2021/04/21 02:31:23;;;;;;;13.80;10.07;;;;;;;11.93;36.44;101160.09;3588161;40;20048;-74
2021/04/21 02:34:19;;;;;;;14.13;9.95;;;;;;;11.89;36.14;101159.44;3588612;40;20082;-73
2021/04/21 02:37:10;;;;;;;15.27;9.75;;;;;;;11.84;35.76;101161.72;3589560;40;20158;-75
2021/04/21 02:40:07;;;;;;;13.65;10.13;;;;;;;11.83;36.42;101160.00;3577697;40;20401;-75
2021/04/21 02:43:02;;;;;;;15.10;9.38;;;;;;;11.79;36.04;101160.38;3582714;40;20044;-76
2021/04/21 02:45:58;;;;;;;14.52;10.10;;;;;;;11.77;36.49;101163.25;3587677;40;20772;-74
2021/04/21 02:48:57;;;;;;;14.45;8.60;;;;;;;11.74;36.60;101154.44;3597767;40;20338;-74
2021/04/21 02:51:51;;;;;;;12.40;9.30;;;;;;;11.71;36.68;101161.03;3587846;40;20045;-74
2021/04/21 02:54:59;;;;;;;16.13;9.85;;;;;;;11.69;36.93;101162.19;3588680;40;20044;-74
2021/04/21 02:57:55;;;;;;;11.98;8.98;;;;;;;11.64;36.49;101168.06;3592080;40;20048;-75
2021/04/21 03:00:47;;;;;;;12.23;8.82;;;;;;;11.61;36.29;101160.09;3590206;40;20223;-75
2021/04/21 03:03:42;;;;;;;13.07;8.90;;;;;;;11.58;36.90;101163.97;3596482;40;20052;-74
2021/04/21 03:06:35;;;;;;;12.73;9.40;;;;;;;11.56;36.61;101162.38;3589124;40;20056;-73
2021/04/21 03:09:31;;;;;;;12.48;9.38;;;;;;;11.55;36.99;101156.00;3593639;40;20040;-74
2021/04/21 03:12:25;;;;;;;12.60;8.95;;;;;;;11.54;37.08;101162.50;3587133;40;20088;-73
2021/04/21 03:15:19;;;;;;;11.60;8.68;;;;;;;11.52;36.65;101160.91;3582127;40;20052;-74
2021/04/21 03:18:09;;;;;;;13.18;9.20;;;;;;;11.49;36.69;101163.91;3577411;40;20064;-74
2021/04/21 03:21:00;;;;;;;11.05;8.52;;;;;;;11.49;36.65;101169.38;3577078;40;20425;-74
2021/04/21 03:23:54;;;;;;;13.80;9.13;;;;;;;11.48;36.89;101159.41;3587231;40;20368;-74
2021/04/21 03:26:45;;;;;;;13.55;9.23;;;;;;;11.47;36.81;101172.25;3584274;40;20088;-74
2021/04/21 03:29:38;;;;;;;12.68;8.32;;;;;;;11.46;36.88;101166.88;3587480;40;20134;-74
2021/04/21 03:32:30;;;;;;;14.57;9.20;;;;;;;11.40;36.88;101173.75;3577387;40;20036;-73
2021/04/21 03:35:18;;;;;;;12.10;8.85;;;;;;;11.41;36.50;101171.91;3578093;40;20048;-74
2021/04/21 03:38:08;;;;;;;12.82;8.55;;;;;;;11.40;36.69;101172.91;3587014;40;20048;-74
2021/04/21 03:40:56;;;;;;;12.05;8.38;;;;;;;11.38;36.47;101174.88;3587836;40;20044;-74
2021/04/21 03:43:44;;;;;;;11.43;8.32;;;;;;;11.37;36.73;101182.22;3585832;40;20048;-73
2021/04/21 03:46:36;;;;;;;13.23;8.82;;;;;;;11.32;36.80;101167.19;3585561;40;20048;-74
2021/04/21 03:49:24;;;;;;;13.20;8.85;;;;;;;11.31;36.53;101162.72;3583413;40;20055;-74
2021/04/21 03:52:14;;;;;;;13.43;9.00;;;;;;;11.30;36.74;101159.09;3585185;40;20063;-73
2021/04/21 03:55:02;;;;;;;12.75;9.27;;;;;;;11.29;36.82;101162.84;3583814;40;20053;-74
2021/04/21 03:57:53;;;;;;;12.43;9.45;;;;;;;11.28;36.97;101163.84;3587697;40;20051;-73
2021/04/21 04:00:41;;;;;;;12.15;8.68;;;;;;;11.27;36.88;101165.72;3586381;40;20060;-73
2021/04/21 04:03:31;;;;;;;12.00;8.93;;;;;;;11.25;36.87;101166.84;3585325;40;20104;-74
2021/04/21 04:06:23;;;;;;;12.82;8.52;;;;;;;11.23;37.26;101163.38;3583740;40;20518;-74
2021/04/21 04:09:12;;;;;;;12.20;8.48;;;;;;;11.22;36.94;101172.56;3586784;40;20063;-74
2021/04/21 04:12:04;;;;;;;12.02;9.35;;;;;;;11.22;37.07;101161.63;3586402;40;20044;-74
2021/04/21 04:14:55;;;;;;;14.77;10.02;;;;;;;11.17;37.37;101167.50;3585999;40;20413;-73
2021/04/21 04:17:47;;;;;;;13.10;8.68;;;;;;;11.19;37.73;101170.13;3587078;40;20037;-74
2021/04/21 04:20:37;;;;;;;10.80;7.95;;;;;;;11.15;37.39;101171.34;3585841;40;20055;-73
2021/04/21 04:23:29;;;;;;;12.23;8.88;;;;;;;11.15;37.05;101172.22;3583909;40;20483;-73
2021/04/21 04:26:18;;;;;;;12.65;8.43;;;;;;;11.14;37.36;101177.81;3585682;40;20056;-74
2021/04/21 04:29:06;;;;;;;11.55;8.20;;;;;;;11.12;37.22;101175.22;3585877;40;20304;-74
2021/04/21 04:31:56;;;;;;;12.18;8.73;;;;;;;11.10;37.46;101182.72;3586341;40;20056;-73
2021/04/21 04:34:47;;;;;;;13.02;9.05;;;;;;;11.10;37.54;101179.97;3586438;40;20079;-73
2021/04/21 04:37:38;;;;;;;14.07;8.85;;;;;;;11.10;37.72;101182.72;3587053;40;20496;-73
2021/04/21 04:40:26;;;;;;;12.98;8.77;;;;;;;11.08;37.65;101181.09;3585017;40;20044;-74
2021/04/21 04:43:14;;;;;;;15.10;9.15;;;;;;;11.08;37.71;101181.09;3585482;40;20083;-74
2021/04/21 04:46:04;;;;;;;11.43;8.32;;;;;;;11.07;37.42;101176.59;3580952;40;20052;-74
2021/04/21 04:48:56;;;;;;;13.75;9.27;;;;;;;11.09;38.25;101185.56;3586537;40;20052;-74
2021/04/21 04:51:53;;;;;;;14.60;9.20;;;;;;;11.09;38.06;101182.81;3579422;40;20027;-73
2021/04/21 04:54:41;;;;;;;10.95;8.57;;;;;;;11.06;37.91;101185.81;3583537;40;20063;-74
2021/04/21 04:57:29;;;;;;;13.65;8.57;;;;;;;11.06;37.64;101181.22;3584566;40;20064;-73
2021/04/21 05:00:19;;;;;;;13.30;8.90;;;;;;;11.06;37.91;101189.41;3588100;40;20064;-74
2021/04/21 05:03:14;;;;;;;13.95;8.95;;;;;;;11.07;38.12;101191.16;3588017;40;20089;-74
2021/04/21 05:06:04;;;;;;;11.40;8.25;;;;;;;11.06;37.87;101194.03;3583228;40;20076;-73
2021/04/21 05:08:55;;;;;;;12.88;9.43;;;;;;;11.08;38.53;101200.25;3588301;40;20048;-74
2021/04/21 05:11:47;;;;;;;12.45;8.90;;;;;;;11.06;37.98;101200.38;3586889;40;20064;-74
2021/04/21 05:14:38;;;;;;;13.82;9.45;;;;;;;11.06;38.47;101203.09;3587116;40;20037;-74
2021/04/21 05:18:05;;;;;;;14.38;9.38;;;;;;;11.07;38.71;101209.47;3584399;40;20052;-74
2021/04/21 05:21:53;;;;;;;11.95;8.38;;;;;;;11.03;38.68;101214.31;3588188;40;20126;-74
2021/04/21 05:25:14;;;;;;;10.27;7.43;;;;;;;11.07;38.91;101221.28;3560932;40;20056;-74
2021/04/21 05:28:44;;;;;;;12.43;8.40;;;;;;;11.06;38.62;101221.41;3554829;40;20143;-74
2021/04/21 05:32:10;;;;;;;13.30;8.77;;;;;;;11.09;38.93;101226.63;3580457;40;20407;-73
2021/04/21 05:35:43;;;;;;;12.90;8.55;;;;;;;11.07;38.76;101221.28;3586131;40;20052;-74
2021/04/21 05:39:17;;;;;;;13.07;8.93;;;;;;;11.07;38.88;101220.41;3583366;40;20052;-74
2021/04/21 05:42:23;;;;;;;;;;;;;;;10.84;39.02;101217.69;3585286;40;20063;-74
2021/04/21 05:45:38;;;;;;;11.75;8.07;;;;;;;11.12;39.16;101227.22;3582841;40;19948;-74
2021/04/21 05:49:01;;;;;;;13.70;9.55;;;;;;;11.14;39.09;101224.38;3584844;40;20057;-74
2021/04/21 05:52:06;;;;;;;13.93;9.98;;;;;;;11.18;39.33;101228.63;3586301;40;20095;-74
2021/04/21 05:55:43;;;;;;;13.93;10.65;;;;;;;11.15;39.35;101234.31;3586252;40;20055;-74
2021/04/21 05:58:57;;;;;;;15.13;10.15;;;;;;;11.25;39.37;101235.31;3583766;40;20052;-74
2021/04/21 06:01:47;;;;;;;16.85;11.07;;;;;;;11.27;38.91;101239.69;3585315;40;20447;-74
2021/04/21 06:04:35;;;;;;;16.48;11.32;;;;;;;11.31;38.96;101233.91;3585500;40;20052;-74
2021/04/21 06:07:25;;;;;;;17.63;12.77;;;;;;;11.36;39.33;101229.78;3583543;40;20049;-74
2021/04/21 06:10:23;;;;;;;16.63;11.52;;;;;;;11.40;39.64;101235.91;3585865;40;20044;-74
2021/04/21 06:13:11;;;;;;;16.20;11.80;;;;;;;11.40;39.16;101233.16;3585202;40;20052;-75
2021/04/21 06:15:59;;;;;;;15.98;11.90;;;;;;;11.46;39.28;101229.88;3584595;40;20040;-75
2021/04/21 06:18:54;;;;;;;16.35;11.55;;;;;;;11.52;39.62;101232.13;3584197;40;20043;-75
2021/04/21 06:21:41;;;;;;;18.85;12.00;;;;;;;11.53;39.18;101231.97;3584495;40;20138;-74
2021/04/21 06:24:30;;;;;;;16.08;12.05;;;;;;;11.60;39.26;101237.84;3586016;40;20040;-75
2021/04/21 06:27:18;;;;;;;15.85;11.60;;;;;;;11.65;39.60;101235.56;3587469;40;20050;-74
2021/04/21 06:30:07;;;;;;;17.27;11.57;;;;;;;11.71;39.55;101242.38;3586877;40;20071;-73
2021/04/21 06:32:59;;;;;;;17.42;12.48;;;;;;;11.78;39.78;101243.59;3593244;40;20325;-74
2021/04/21 06:35:47;;;;;;;16.58;12.55;;;;;;;11.82;39.54;101239.59;3593559;40;20059;-74
2021/04/21 06:38:36;;;;;;;16.98;12.10;;;;;;;11.89;39.37;101247.19;3590775;40;20380;-75
2021/04/21 06:41:24;;;;;;;18.00;12.75;;;;;;;11.94;39.41;101242.19;3587306;40;20048;-74
2021/04/21 06:44:13;;;;;;;20.35;13.80;;;;;;;12.03;39.66;101246.88;3587886;40;20043;-73
2021/04/21 06:47:00;;;;;;;18.73;12.75;;;;;;;12.07;39.58;101244.75;3589390;40;20074;-73
2021/04/21 06:50:02;;;;;;;16.95;12.38;;;;;;;12.19;40.35;101248.28;3586793;40;20067;-72
2021/04/21 06:52:50;;;;;;;19.70;13.57;;;;;;;12.25;39.69;101251.38;3589308;40;20473;-71
2021/04/21 06:55:38;;;;;;;18.75;13.73;;;;;;;12.33;39.87;101251.59;3586217;40;20402;-72
2021/04/21 06:58:27;;;;;;;19.25;13.95;;;;;;;12.42;40.04;101252.66;3587357;40;20053;-73
2021/04/21 07:01:18;;;;;;;20.63;14.82;;;;;;;12.53;39.64;101254.44;3586124;40;20103;-73
2021/04/21 07:04:14;;;;;;;22.83;16.42;;;;;;;12.66;40.08;101249.63;3592459;40;20037;-72
2021/04/21 07:07:11;;;;;;;25.63;16.67;;;;;;;12.72;39.97;101257.28;3590385;40;20093;-71
2021/04/21 07:10:01;;;;;;;21.67;16.40;;;;;;;12.80;39.42;101261.09;3591277;40;20059;-70
2021/04/21 07:12:49;;;;;;;21.95;16.30;;;;;;;12.91;39.30;101253.78;3586576;40;20398;-72
2021/04/21 07:15:38;;;;;;;21.30;15.73;;;;;;;12.98;39.09;101253.13;3588606;40;20440;-72
2021/04/21 07:18:28;;;;;;;18.65;13.52;;;;;;;13.05;39.71;101262.53;3590352;39;20057;-72
2021/04/21 07:21:17;;;;;;;22.45;15.43;;;;;;;13.11;39.31;101259.22;3585805;40;20064;-73
2021/04/21 07:24:07;;;;;;;21.42;15.07;;;;;;;13.18;39.28;101262.28;3585927;40;20049;-72
2021/04/21 07:26:56;;;;;;;21.27;15.60;;;;;;;13.24;38.87;101260.88;3582419;40;20058;-71
2021/04/21 07:29:45;;;;;;;23.70;17.70;;;;;;;13.27;38.50;101264.19;3585701;40;20083;-72
2021/04/21 07:32:44;;;;;;;26.90;18.55;;;;;;;13.33;38.61;101260.91;3585995;40;20048;-73
2021/04/21 07:35:33;;;;;;;22.20;16.27;;;;;;;13.33;38.42;101258.16;3581398;40;20060;-73
2021/04/21 07:38:21;;;;;;;22.60;16.15;;;;;;;13.36;38.67;101260.59;3585002;40;20431;-72
2021/04/21 07:41:09;;;;;;;21.98;16.17;;;;;;;13.39;38.65;101256.72;3584118;40;20044;-71
2021/04/21 07:43:58;;;;;;;25.45;19.45;;;;;;;13.42;38.64;101265.53;3584751;40;20138;-71
2021/04/21 07:46:45;;;;;;;22.55;16.77;;;;;;;13.42;38.57;101262.78;3584451;40;20074;-72
2021/04/21 07:49:34;;;;;;;21.20;15.07;;;;;;;13.46;38.35;101266.13;3584861;40;20353;-71
2021/04/21 07:52:23;;;;;;;24.17;17.00;;;;;;;13.48;38.02;101264.09;3585947;40;20093;-72
2021/04/21 07:55:13;;;;;;;19.80;13.70;;;;;;;13.50;38.52;101271.19;3585286;40;20044;-72
2021/04/21 07:58:03;;;;;;;23.00;16.58;;;;;;;13.51;38.59;101272.06;3583698;40;20059;-71
2021/04/21 08:00:58;;;;;;;22.40;15.90;;;;;;;13.52;38.51;101265.53;3586303;40;20088;-72
2021/04/21 08:03:46;;;;;;;22.92;16.23;;;;;;;13.54;38.63;101275.41;3586541;40;20060;-71
2021/04/21 08:06:41;;;;;;;25.00;18.17;;;;;;;13.60;38.44;101273.09;3587145;40;20494;-71
2021/04/21 08:09:35;;;;;;;26.00;18.13;;;;;;;13.61;38.47;101275.69;3587288;40;20043;-70
2021/04/21 08:12:26;;;;;;;24.20;16.77;;;;;;;13.63;38.68;101275.56;3586815;39;20107;-71
2021/04/21 08:15:14;;;;;;;23.65;16.70;;;;;;;13.64;38.23;101271.81;3586058;40;20134;-71
2021/04/21 08:18:05;;;;;;;24.70;18.27;;;;;;;13.68;38.34;101276.00;3585660;40;20038;-70
2021/04/21 08:20:55;;;;;;;24.80;17.33;;;;;;;13.71;38.44;101275.72;3587101;40;20059;-71
2021/04/21 08:23:59;;;;;;;22.08;16.15;;;;;;;13.76;38.24;101284.38;3586489;40;20049;-73
2021/04/21 08:30:31;;;;;;;20.38;15.15;;;;;;;13.78;38.33;101282.38;3584829;40;20453;-74
2021/04/21 08:33:20;;;;;;;27.65;18.60;;;;;;;13.82;38.39;101281.09;3587120;40;20067;-75
2021/04/21 08:36:08;;;;;;;27.67;19.08;;;;;;;13.83;38.25;101283.66;3588134;40;20069;-73
2021/04/21 08:38:55;;;;;;;27.40;19.58;;;;;;;13.86;38.54;101285.28;3587865;40;20092;-75
2021/04/21 08:41:44;;;;;;;25.42;17.58;;;;;;;13.91;38.10;101281.09;3583501;40;20355;-72
2021/04/21 08:44:35;;;;;;;22.70;16.80;;;;;;;13.96;38.31;101291.69;3584414;40;20052;-72
2021/04/21 08:47:25;;;;;;;23.42;17.75;;;;;;;14.03;38.16;101294.72;3586281;40;20508;-72
2021/04/21 08:50:16;;;;;;;19.48;14.32;;;;;;;14.10;38.71;101288.50;3584046;40;20376;-72
2021/04/21 08:53:06;;;;;;;26.35;19.05;;;;;;;14.19;38.07;101286.75;3587346;40;20057;-73
2021/04/21 08:55:55;;;;;;;29.23;20.75;;;;;;;14.27;38.05;101289.66;3587034;40;20056;-72
2021/04/21 08:58:45;;;;;;;26.60;18.77;;;;;;;14.38;38.24;101294.16;3594886;39;20054;-72
2021/04/21 09:01:34;;;;;;;25.92;19.13;;;;;;;14.46;38.01;101286.88;3586141;40;20048;-72
2021/04/21 09:04:22;;;;;;;21.88;15.98;;;;;;;14.57;37.96;101288.63;3588230;40;20059;-72
2021/04/21 09:07:11;;;;;;;26.90;17.50;;;;;;;14.67;37.84;101290.31;3587084;40;20063;-72
2021/04/21 09:10:00;;;;;;;23.08;16.67;;;;;;;14.82;38.02;101296.25;3586249;40;20043;-72
2021/04/21 09:12:48;;;;;;;26.77;18.38;;;;;;;14.91;37.71;101295.34;3587159;40;20673;-72
2021/04/21 09:15:36;;;;;;;25.60;19.52;;;;;;;15.04;37.70;101295.03;3587985;40;20584;-71
2021/04/21 09:18:25;;;;;;;22.02;16.95;;;;;;;15.18;37.38;101297.28;3589582;40;20036;-72
2021/04/21 09:21:18;;;;;;;20.00;15.07;;;;;;;15.32;36.42;101293.13;3592726;40;20060;-72
2021/04/21 09:24:12;;;;;;;17.70;14.13;;;;;;;15.39;36.08;101297.88;3585608;40;20138;-72
2021/04/21 09:27:24;;;;;;;19.10;14.18;;;;;;;15.51;35.41;101293.03;3584741;40;20044;-72
2021/04/21 09:30:13;;;;;;;17.05;13.50;;;;;;;15.63;36.02;101301.97;3586033;40;20064;-72
2021/04/21 09:33:01;;;;;;;20.02;15.20;;;;;;;15.72;35.82;101295.56;3584835;40;20089;-71
2021/04/21 09:35:49;;;;;;;21.13;16.85;;;;;;;15.80;35.32;101299.28;3586923;40;20406;-72
2021/04/21 09:38:37;;;;;;;19.75;15.25;;;;;;;15.87;35.23;101299.53;3583874;40;20062;-72
2021/04/21 09:41:27;;;;;;;19.98;14.68;;;;;;;15.94;34.73;101295.13;3585432;40;20868;-72
2021/04/21 09:44:17;;;;;;;19.60;15.32;;;;;;;15.99;35.01;101301.00;3586755;40;20052;-72
2021/04/21 09:47:13;;;;;;;19.63;14.65;;;;;;;16.08;34.10;101299.22;3587908;40;20450;-71
2021/04/21 09:50:01;;;;;;;22.13;15.77;;;;;;;16.11;35.22;101301.66;3587166;40;20326;-72
2021/04/21 09:52:48;;;;;;;23.48;15.77;;;;;;;16.16;34.43;101296.53;3587393;40;20059;-76
2021/04/21 09:55:36;;;;;;;20.00;15.27;;;;;;;16.24;34.66;101299.34;3589682;40;20057;-71
2021/04/21 09:58:30;;;;;;;18.95;15.02;;;;;;;16.34;33.73;101299.28;3584196;40;20100;-71
2021/04/21 10:01:21;;;;;;;;;;;;;;;16.11;34.79;101298.91;3586575;40;20056;-72
2021/04/21 10:04:12;;;;;;;20.52;14.40;;;;;;;16.46;34.63;101296.13;3579613;40;19937;-71
2021/04/21 10:07:02;;;;;;;19.67;14.82;;;;;;;16.59;34.40;101292.09;3585538;40;20059;-72
2021/04/21 10:09:56;;;;;;;20.00;15.13;;;;;;;16.68;34.35;101296.66;3585633;40;20150;-71
2021/04/21 10:12:44;;;;;;;21.27;15.68;;;;;;;16.77;33.81;101293.78;3585817;40;20080;-71
2021/04/21 10:15:33;;;;;;;19.63;15.27;;;;;;;16.90;33.69;101296.97;3586183;40;20084;-70
2021/04/21 10:18:21;;;;;;;20.08;14.20;;;;;;;16.99;34.09;101288.72;3584942;40;20040;-72
2021/04/21 10:21:11;;;;;;;18.35;13.80;;;;;;;17.12;33.71;101286.41;3578637;40;20154;-69
2021/04/21 10:23:59;;;;;;;17.02;13.32;;;;;;;17.20;33.72;101287.31;3584987;40;20045;-70
2021/04/21 10:26:47;;;;;;;17.92;14.18;;;;;;;17.32;33.18;101287.91;3585540;40;20129;-69
2021/04/21 10:29:37;;;;;;;18.70;13.35;;;;;;;17.45;33.27;101292.97;3583552;40;20479;-69
2021/04/21 10:32:25;;;;;;;17.00;12.65;;;;;;;17.54;32.92;101291.94;3581339;40;20052;-68
2021/04/21 10:35:14;;;;;;;17.70;13.30;;;;;;;17.63;32.34;101291.81;3585855;40;20059;-69
2021/04/21 10:38:02;;;;;;;18.40;14.23;;;;;;;17.72;32.43;101283.53;3580541;40;20043;-69
2021/04/21 10:40:50;;;;;;;16.77;14.07;;;;;;;17.80;31.61;101289.94;3582530;40;20063;-69
2021/04/21 10:43:40;;;;;;;17.63;13.00;;;;;;;17.88;31.86;101283.56;3584726;40;20065;-69
2021/04/21 10:47:04;;;;;;;16.02;12.38;;;;;;;17.96;29.88;101287.22;3586514;40;20040;-69
2021/04/21 10:49:58;;;;;;;13.35;10.20;;;;;;;18.04;30.59;101291.94;3586349;40;20044;-68
2021/04/21 10:52:45;;;;;;;13.30;10.27;;;;;;;18.10;31.23;101282.97;3580976;40;20048;-68
2021/04/21 10:55:40;;;;;;;13.82;10.63;;;;;;;18.22;29.56;101280.72;3587360;40;20058;-69
2021/04/21 10:58:50;;;;;;;12.73;9.57;;;;;;;18.25;29.56;101284.00;3584743;40;20037;-69
2021/04/21 11:01:39;;;;;;;11.88;9.32;;;;;;;18.34;30.04;101273.81;3586632;40;20721;-69
2021/04/21 11:05:03;;;;;;;12.32;8.95;;;;;;;18.37;28.72;101270.66;3585818;40;20046;-68
2021/04/21 11:08:00;;;;;;;13.27;8.93;;;;;;;18.49;28.45;101272.06;3586055;40;20052;-69
2021/04/21 11:10:52;;;;;;;12.75;9.52;;;;;;;18.57;29.39;101273.97;3588654;40;20040;-70
2021/04/21 11:13:44;;;;;;;11.18;8.73;;;;;;;18.62;28.62;101279.81;3586224;40;20048;-70
2021/04/21 11:16:39;;;;;;;10.25;7.97;;;;;;;18.73;28.00;101262.84;3586189;40;20058;-70
2021/04/21 11:19:31;;;;;;;11.02;8.10;;;;;;;18.78;27.84;101275.16;3587657;40;20074;-71
2021/04/21 11:22:26;;;;;;;9.63;7.35;;;;;;;18.84;27.81;101268.06;3586700;40;20048;-69
2021/04/21 11:26:04;;;;;;;9.75;7.57;;;;;;;18.86;27.15;101263.19;3594381;39;20036;-70
2021/04/21 11:28:54;;;;;;;10.10;7.22;;;;;;;18.94;27.13;101270.63;3586546;40;20048;-71
2021/04/21 11:32:10;;;;;;;9.10;6.57;;;;;;;19.00;26.47;101278.25;3588378;40;20126;-71
2021/04/21 11:35:27;;;;;;;10.32;6.63;;;;;;;19.02;25.92;101267.84;3586795;40;20063;-71
2021/04/21 11:38:42;;;;;;;7.85;6.03;;;;;;;19.07;25.01;101257.94;3586264;40;20097;-69
2021/04/21 11:41:45;;;;;;;8.40;6.07;;;;;;;19.12;25.02;101263.81;3583211;40;20047;-69
2021/04/21 11:45:28;;;;;;;8.10;6.25;;;;;;;19.12;24.51;101265.72;3584285;40;20311;-69
2021/04/21 11:48:39;;;;;;;6.47;4.90;;;;;;;19.18;25.22;101265.84;3562652;39;20067;-69
2021/04/21 11:51:45;;;;;;;8.35;6.10;;;;;;;19.23;24.87;101264.47;3588931;40;20053;-71
2021/04/21 11:54:59;;;;;;;7.90;5.82;;;;;;;19.20;25.09;101261.00;3585977;40;20036;-71
2021/04/21 11:57:54;;;;;;;9.73;6.35;;;;;;;19.27;25.43;101263.06;3586240;40;20425;-71
2021/04/21 12:00:44;;;;;;;8.20;5.97;;;;;;;19.29;26.38;101264.59;3583307;40;20043;-69
2021/04/21 12:03:33;;;;;;;10.57;6.28;;;;;;;19.33;25.59;101267.91;3581772;40;20062;-70
2021/04/21 12:06:20;;;;;;;8.90;6.35;;;;;;;19.34;25.45;101261.31;3579026;39;20115;-70
2021/04/21 12:09:08;;;;;;;9.43;6.38;;;;;;;19.35;25.47;101252.78;3581658;40;20036;-71
2021/04/21 12:11:59;;;;;;;8.25;6.15;;;;;;;19.40;24.88;101255.91;3583055;40;21476;-70
2021/04/21 12:15:00;;;;;;;8.00;6.60;;;;;;;19.40;25.34;101255.03;3581648;40;20538;-70
2021/04/21 12:17:53;;;;;;;8.48;5.30;;;;;;;19.45;24.35;101261.75;3579352;40;20054;-71
2021/04/21 12:20:43;;;;;;;8.13;6.00;;;;;;;19.46;24.95;101266.28;3583627;40;20126;-71
2021/04/21 12:23:33;;;;;;;7.97;6.05;;;;;;;19.52;25.16;101254.47;3581658;40;20080;-70
2021/04/21 12:26:23;;;;;;;10.20;5.80;;;;;;;19.56;24.99;101261.41;3582663;40;20060;-72
2021/04/21 12:29:14;;;;;;;9.07;5.35;;;;;;;19.62;24.21;101258.94;3583309;40;20064;-66
2021/04/21 12:32:05;;;;;;;8.40;5.22;;;;;;;19.69;24.07;101268.25;3582968;40;20048;-67
2021/04/21 12:34:52;;;;;;;7.65;5.38;;;;;;;19.70;24.83;101268.06;3586567;40;20048;-68
2021/04/21 12:37:40;;;;;;;8.23;6.65;;;;;;;19.72;24.16;101259.56;3583425;40;20058;-66
2021/04/21 12:40:29;;;;;;;8.38;5.78;;;;;;;19.76;24.12;101263.72;3585405;40;20041;-68
2021/04/21 12:43:17;;;;;;;9.15;6.13;;;;;;;19.78;23.90;101258.84;3581991;40;20611;-68
2021/04/21 12:46:17;;;;;;;9.90;6.72;;;;;;;19.81;23.37;101256.56;3584668;40;20075;-68
2021/04/21 12:49:32;;;;;;;7.95;6.40;;;;;;;19.81;23.66;101259.34;3584580;40;20057;-67
2021/04/21 12:52:29;;;;;;;6.95;5.78;;;;;;;19.83;23.73;101253.63;3583960;40;20056;-68
2021/04/21 12:55:28;;;;;;;8.25;6.30;;;;;;;19.83;23.50;101257.25;3581876;40;20157;-67
2021/04/21 12:58:32;;;;;;;8.63;6.00;;;;;;;19.82;22.91;101254.66;3582977;40;20440;-67
2021/04/21 13:01:22;;;;;;;8.27;5.90;;;;;;;19.84;24.16;101258.13;3579580;40;20067;-67
2021/04/21 13:04:12;;;;;;;8.73;6.38;;;;;;;19.83;24.32;101259.16;3583498;40;20055;-67
2021/04/21 13:07:12;;;;;;;8.73;6.82;;;;;;;19.85;22.35;101260.69;3586627;40;20331;-66
2021/04/21 13:10:05;;;;;;;8.50;6.93;;;;;;;19.86;23.46;101251.31;3582987;40;20317;-66
2021/04/21 13:13:01;;;;;;;8.95;6.93;;;;;;;19.86;23.10;101250.44;3581677;40;20049;-67